D/T METAR WX W/SPE G/SPE TEMP DEWP FEEL
31/01/23 08:00 EIDW 310800Z 25015KT 9999 FEW015 07/04 Q1022 NOSIG 17.3mph 7°C 4°C 6.0°C
31/01/23 07:30 EIDW 310730Z 25015KT 9999 FEW015 07/04 Q1022 NOSIG 17.3mph 7°C 4°C 6.0°C
31/01/23 05:30 EIDW 310530Z 26017KT 9999 FEW015 07/04 Q1021 NOSIG 19.6mph 7°C 4°C 6.0°C
31/01/23 05:00 EIDW 310500Z 27019KT 9999 FEW015 SCT030 07/04 Q1021 NOSIG 21.9mph 7°C 4°C 6.0°C
31/01/23 03:30 EIDW 310330Z 24013G24KT 200V280 5000 -RADZ FEW004 BKN006 08/07 Q1021 BECMG BKN012 -RA -DZ 15.0mph 27.6mph 8°C 7°C 8.0°C
31/01/23 00:00 EIDW 310000Z 23010KT 190V260 9999 -DZ FEW012 SCT016 BKN019 08/05 Q1022 NOSIG -DZ 11.5mph 8°C 5°C 7.3°C
30/01/23 19:00 EIDW 301900Z 22009KT 200V260 9999 FEW012 BKN050 08/03 Q1025 NOSIG 10.4mph 8°C 3°C 6.7°C
30/01/23 13:00 EIDW 301300Z 26009KT 210V290 9999 FEW012 SCT035 08/03 Q1027 NOSIG 10.4mph 8°C 3°C 6.7°C
30/01/23 09:00 EIDW 300900Z 24007KT 170V270 9999 FEW014 BKN160 05/02 Q1026 NOSIG 8.1mph 5°C 2°C 3.4°C
30/01/23 08:30 EIDW 300830Z 23005KT 190V270 9999 FEW014 BKN160 05/02 Q1026 NOSIG 5.8mph 5°C 2°C 3.4°C
30/01/23 06:30 EIDW 300630Z 27013KT 9999 FEW014 SCT042 05/02 Q1025 NOSIG 15.0mph 5°C 2°C 3.4°C
09/01/23 06:30 EIDW 090630Z 25011G25KT 220V290 9999 FEW016 04/02 Q0995 NOSIG 12.7mph 28.8mph 4°C 2°C 2.4°C
09/01/23 06:00 EIDW 090600Z 25013KT 220V280 9999 FEW016 04/02 Q0994 NOSIG 15.0mph 4°C 2°C 2.4°C
09/01/23 05:30 EIDW 090530Z 26014KT 9999 FEW016 05/03 Q0994 NOSIG 16.1mph 5°C 3°C 3.7°C
09/01/23 05:00 EIDW 090500Z 27012KT 9999 FEW014 FEW018CB BKN022 05/03 Q0993 TEMPO BKN010 13.8mph 5°C 3°C 3.7°C
09/01/23 04:30 EIDW 090430Z 28011KT 9999 -SHRA FEW014 FEW018CB BKN022 05/03 Q0993 TEMPO BKN010 -SHRA 12.7mph 5°C 3°C 3.7°C
09/01/23 04:00 EIDW 090400Z 29022KT 9999 -SHRA FEW007 FEW018CB BKN020 05/03 Q0992 TEMPO BKN010 -SHRA 25.3mph 5°C 3°C 3.7°C
09/01/23 03:30 EIDW 090330Z 27016KT 9999 FEW012 FEW018CB BKN020 06/04 Q0991 TEMPO BKN010 18.4mph 6°C 4°C 5.0°C
09/01/23 03:00 EIDW 090300Z 27016KT 9000 -RADZ FEW012 BKN018 06/04 Q0990 TEMPO BKN010 -RA -DZ 18.4mph 6°C 4°C 5.0°C
09/01/23 02:00 EIDW 090200Z 25012KT 220V280 8000 -RADZ FEW007 BKN014 05/04 Q0988 TEMPO BKN010 -RA -DZ 13.8mph 5°C 4°C 4.0°C
09/01/23 01:30 EIDW 090130Z 24011G23KT 200V280 9999 -RA FEW014 BKN020 06/03 Q0988 NOSIG -RA 12.7mph 26.5mph 6°C 3°C 4.7°C
09/01/23 00:30 EIDW 090030Z 23009KT 200V280 9999 FEW016 05/02 Q0987 NOSIG 10.4mph 5°C 2°C 3.4°C
09/01/23 00:00 EIDW 090000Z 24011KT 190V280 9999 FEW016 05/02 Q0986 NOSIG 12.7mph 5°C 2°C 3.4°C
08/01/23 23:30 EIDW 082330Z 24010KT 200V270 9999 FEW016 05/03 Q0986 NOSIG 11.5mph 5°C 3°C 3.7°C
08/01/23 23:00 EIDW 082300Z 25010KT 180V270 9999 FEW016 05/03 Q0986 NOSIG 11.5mph 5°C 3°C 3.7°C
08/01/23 22:30 EIDW 082230Z 25011KT 9999 FEW016 05/03 Q0986 NOSIG 12.7mph 5°C 3°C 3.7°C
08/01/23 22:00 EIDW 082200Z 25010KT 9999 FEW015 SCT180 05/03 Q0986 NOSIG 11.5mph 5°C 3°C 3.7°C
08/01/23 21:30 EIDW 082130Z 25011G22KT 210V280 9999 FEW015 BKN160 05/03 Q0985 NOSIG 12.7mph 25.3mph 5°C 3°C 3.7°C
08/01/23 21:00 EIDW 082100Z 25011KT 200V280 9999 FEW015 BKN160 05/03 Q0985 NOSIG 12.7mph 5°C 3°C 3.7°C
08/01/23 19:30 EIDW 081930Z 25012KT 220V280 9999 FEW015 BKN180 05/03 Q0984 NOSIG 13.8mph 5°C 3°C 3.7°C
08/01/23 19:00 EIDW 081900Z 25011KT 200V270 9999 FEW015 05/03 Q0983 NOSIG 12.7mph 5°C 3°C 3.7°C
08/01/23 18:30 EIDW 081830Z 24009KT 190V270 9999 FEW015 05/03 Q0983 NOSIG 10.4mph 5°C 3°C 3.7°C
08/01/23 18:00 EIDW 081800Z 23008KT 190V270 9999 FEW015 05/02 Q0982 NOSIG 9.2mph 5°C 2°C 3.4°C
08/01/23 16:30 EIDW 081630Z 23007KT 190V280 9999 FEW018 FEW022CB SCT190 06/02 Q0982 NOSIG 8.1mph 6°C 2°C 4.4°C
08/01/23 16:00 EIDW 081600Z 22011KT 170V250 9999 FEW018 FEW022CB BKN190 07/02 Q0981 NOSIG 12.7mph 7°C 2°C 5.4°C
08/01/23 15:30 EIDW 081530Z 22009KT 170V270 9999 FEW018 FEW022CB BKN200 07/02 Q0981 NOSIG 10.4mph 7°C 2°C 5.4°C
08/01/23 15:00 EIDW 081500Z 22011KT 190V260 9999 FEW018 FEW022CB BKN200 07/02 Q0981 NOSIG 12.7mph 7°C 2°C 5.4°C
08/01/23 14:30 EIDW 081430Z 22012KT 190V270 9999 FEW022CB SCT042 BKN200 07/02 Q0981 NOSIG 13.8mph 7°C 2°C 5.4°C
08/01/23 14:00 EIDW 081400Z 22016G26KT 180V260 9999 FEW025 BKN110 BKN200 07/02 Q0981 NOSIG 18.4mph 29.9mph 7°C 2°C 5.4°C
08/01/23 13:30 EIDW 081330Z 21014KT 180V240 9999 FEW020 SCT090 BKN180 06/01 Q0981 NOSIG 16.1mph 6°C 1°C 4.1°C
08/01/23 13:00 EIDW 081300Z 21011KT 9999 FEW018 FEW020CB BKN060 06/01 Q0981 NOSIG 12.7mph 6°C 1°C 4.1°C
08/01/23 12:30 EIDW 081230Z 21012G22KT 170V240 9999 FEW018 FEW020CB SCT060 06/01 Q0981 NOSIG 13.8mph 25.3mph 6°C 1°C 4.1°C
08/01/23 12:00 EIDW 081200Z 21009KT 170V240 9999 FEW020CB SCT180 06/00 Q0982 NOSIG 10.4mph 6°C 0°C 3.8°C
08/01/23 11:30 EIDW 081130Z 21012KT 170V240 9999 FEW019 FEW022CB 06/01 Q0982 NOSIG 13.8mph 6°C 1°C 4.1°C
08/01/23 11:00 EIDW 081100Z 22010KT 190V260 9999 FEW018 06/01 Q0982 NOSIG 11.5mph 6°C 1°C 4.1°C
08/01/23 10:30 EIDW 081030Z 22011KT 190V290 9999 FEW017 SCT180 05/01 Q0982 NOSIG 12.7mph 5°C 1°C 3.1°C
08/01/23 10:00 EIDW 081000Z 22011KT 190V260 9999 FEW016 BKN180 05/01 Q0982 NOSIG 12.7mph 5°C 1°C 3.1°C
08/01/23 09:30 EIDW 080930Z 22008KT 170V260 9999 FEW015 BKN180 05/02 Q0982 NOSIG 9.2mph 5°C 2°C 3.4°C
08/01/23 09:00 EIDW 080900Z 20009KT 170V230 9999 FEW014 SCT150 BKN160 06/02 Q0982 NOSIG 10.4mph 6°C 2°C 4.4°C
08/01/23 08:30 EIDW 080830Z 20009KT 170V230 9999 FEW010 BKN160 06/02 Q0982 NOSIG 10.4mph 6°C 2°C 4.4°C
08/01/23 08:00 EIDW 080800Z 18010KT 150V210 9999 FEW012 SCT040 BKN140 06/01 Q0983 NOSIG 11.5mph 6°C 1°C 4.1°C
08/01/23 07:30 EIDW 080730Z 20009KT 170V240 9999 FEW014 SCT040 BKN140 06/01 Q0983 NOSIG 10.4mph 6°C 1°C 4.1°C
08/01/23 07:00 EIDW 080700Z 21011KT 170V250 9999 FEW014 SCT040 BKN140 06/02 Q0983 NOSIG 12.7mph 6°C 2°C 4.4°C
08/01/23 06:30 EIDW 080630Z 21012KT 170V280 9999 FEW014 SCT040 BKN150 07/02 Q0983 NOSIG 13.8mph 7°C 2°C 5.4°C
08/01/23 06:00 EIDW 080600Z 22011KT 180V280 9999 FEW014 SCT090 BKN200 07/02 Q0983 NOSIG 12.7mph 7°C 2°C 5.4°C
08/01/23 05:30 EIDW 080530Z 22012KT 180V270 9999 FEW016 SCT130 BKN200 07/02 Q0983 NOSIG 13.8mph 7°C 2°C 5.4°C
08/01/23 05:00 EIDW 080500Z 22013G23KT 190V260 9999 FEW016 BKN200 07/01 Q0984 NOSIG 15.0mph 26.5mph 7°C 1°C 5.1°C
08/01/23 04:30 EIDW 080430Z 22013G23KT 190V250 9999 FEW016 BKN200 07/01 Q0984 NOSIG 15.0mph 26.5mph 7°C 1°C 5.1°C
08/01/23 04:00 EIDW 080400Z 23014G25KT 180V290 9999 FEW018 SCT200 07/01 Q0984 NOSIG 16.1mph 28.8mph 7°C 1°C 5.1°C
08/01/23 03:30 EIDW 080330Z 22012G23KT 190V260 9999 FEW018 07/02 Q0984 NOSIG 13.8mph 26.5mph 7°C 2°C 5.4°C
08/01/23 02:30 EIDW 080230Z 22013G26KT 190V260 9999 FEW015 07/03 Q0984 NOSIG 15.0mph 29.9mph 7°C 3°C 5.7°C
08/01/23 02:00 EIDW 080200Z 23012G25KT 140V280 9999 FEW015 07/03 Q0984 NOSIG 13.8mph 28.8mph 7°C 3°C 5.7°C
08/01/23 01:00 EIDW 080100Z 23015G28KT 190V270 9999 FEW015 08/03 Q0984 NOSIG 17.3mph 32.2mph 8°C 3°C 6.7°C
08/01/23 00:30 EIDW 080030Z 23015G29KT 180V260 9999 FEW012 SCT150 08/03 Q0984 NOSIG 17.3mph 33.4mph 8°C 3°C 6.7°C
08/01/23 00:00 EIDW 080000Z 23017G29KT 190V280 9999 FEW012 SCT150 08/03 Q0983 NOSIG 19.6mph 33.4mph 8°C 3°C 6.7°C
07/01/23 23:30 EIDW 072330Z 23013G25KT 190V280 9999 FEW012 SCT150 08/04 Q0983 NOSIG 15.0mph 28.8mph 8°C 4°C 7.0°C
07/01/23 23:00 EIDW 072300Z 23018G30KT 200V280 9999 FEW012 SCT150 08/04 Q0983 NOSIG 20.7mph 34.5mph 8°C 4°C 7.0°C
07/01/23 22:00 EIDW 072200Z 23017G28KT 200V260 9999 -SHRA FEW013 SCT032 08/04 Q0982 NOSIG -SHRA 19.6mph 32.2mph 8°C 4°C 7.0°C
07/01/23 21:30 EIDW 072130Z 22018G30KT 190V250 9999 -SHRA FEW014 SCT035 08/04 Q0982 NOSIG -SHRA 20.7mph 34.5mph 8°C 4°C 7.0°C
07/01/23 21:00 EIDW 072100Z 22018G32KT 190V260 9999 FEW014 08/04 Q0982 NOSIG 20.7mph 36.8mph 8°C 4°C 7.0°C
07/01/23 20:30 EIDW 072030Z 22018G32KT 190V270 9999 FEW014 08/04 Q0982 NOSIG 20.7mph 36.8mph 8°C 4°C 7.0°C
07/01/23 20:00 EIDW 072000Z 21017G32KT 190V250 9999 -SHRA FEW014 BKN050 08/04 Q0982 NOSIG -SHRA 19.6mph 36.8mph 8°C 4°C 7.0°C
07/01/23 19:30 EIDW 071930Z 21017KT 180V240 9999 FEW015 08/04 Q0982 NOSIG 19.6mph 8°C 4°C 7.0°C
07/01/23 19:00 EIDW 071900Z 20018KT 9999 FEW015 08/04 Q0982 NOSIG 20.7mph 8°C 4°C 7.0°C
07/01/23 18:30 EIDW 071830Z 21016G28KT 190V250 9999 FEW015 07/04 Q0982 NOSIG 18.4mph 32.2mph 7°C 4°C 6.0°C
07/01/23 18:00 EIDW 071800Z 22012KT 180V270 9999 -RA FEW012 FEW022CB SCT045 07/04 Q0982 NOSIG -RA 13.8mph 7°C 4°C 6.0°C
07/01/23 17:30 EIDW 071730Z 22016G26KT 180V270 9999 -SHRA FEW012 FEW022CB SCT045 08/04 Q0982 TEMPO 4000 SHRA -SHRA 18.4mph 29.9mph 8°C 4°C 7.0°C
07/01/23 17:00 EIDW 071700Z 22017G29KT 190V280 9999 FEW012 FEW022CB SCT200 08/03 Q0981 NOSIG 19.6mph 33.4mph 8°C 3°C 6.7°C
07/01/23 16:00 EIDW 071600Z 18013G24KT 150V220 9999 FEW024 BKN032 08/02 Q0982 NOSIG 15.0mph 27.6mph 8°C 2°C 6.4°C
07/01/23 15:30 EIDW 071530Z 17016KT 130V200 9999 FEW025 SCT200 08/02 Q0982 NOSIG 18.4mph 8°C 2°C 6.4°C
07/01/23 15:00 EIDW 071500Z 19014KT 160V240 9999 FEW026 SCT200 09/02 Q0983 NOSIG 16.1mph 9°C 2°C 7.4°C
07/01/23 14:30 EIDW 071430Z 19013KT 160V230 9999 FEW025 SCT200 09/02 Q0983 NOSIG 15.0mph 9°C 2°C 7.4°C
07/01/23 14:00 EIDW 071400Z 19014G26KT 150V220 9999 FEW022CB SCT200 09/03 Q0984 NOSIG 16.1mph 29.9mph 9°C 3°C 7.7°C
07/01/23 13:30 EIDW 071330Z 19014G25KT 150V210 9999 FEW025 SCT200 09/03 Q0984 NOSIG 16.1mph 28.8mph 9°C 3°C 7.7°C
07/01/23 13:00 EIDW 071300Z 20015KT 9999 FEW018 SCT200 09/03 Q0985 NOSIG 17.3mph 9°C 3°C 7.7°C
07/01/23 12:30 EIDW 071230Z 20016KT 150V240 9999 FEW018 09/03 Q0985 NOSIG 18.4mph 9°C 3°C 7.7°C
07/01/23 12:00 EIDW 071200Z 20017KT 170V230 9999 FEW015 09/04 Q0985 NOSIG 19.6mph 9°C 4°C 8.0°C
07/01/23 11:30 EIDW 071130Z 16007KT 110V230 9999 FEW012 SCT100 09/04 Q0986 NOSIG 8.1mph 9°C 4°C 8.0°C
07/01/23 11:00 EIDW 071100Z 13009KT 090V160 9999 -RA FEW008 BKN030 BKN080 08/04 Q0986 NOSIG -RA 10.4mph 8°C 4°C 7.0°C
07/01/23 10:30 EIDW 071030Z 16013KT 120V200 9999 FEW013 08/03 Q0987 NOSIG 15.0mph 8°C 3°C 6.7°C
07/01/23 10:00 EIDW 071000Z 18014G26KT 160V240 9999 FEW018 08/02 Q0987 NOSIG 16.1mph 29.9mph 8°C 2°C 6.4°C
07/01/23 09:00 EIDW 070900Z 20014KT 9999 FEW018 07/03 Q0987 NOSIG 16.1mph 7°C 3°C 5.7°C
07/01/23 08:00 EIDW 070800Z 21012KT 180V240 9999 FEW016 BKN250 07/04 Q0988 NOSIG 13.8mph 7°C 4°C 6.0°C
07/01/23 07:30 EIDW 070730Z 20009KT 170V230 9999 FEW010 SCT090 BKN240 07/04 Q0988 NOSIG 10.4mph 7°C 4°C 6.0°C
07/01/23 07:00 EIDW 070700Z 19008KT 9999 FEW010 SCT070 BKN090 08/05 Q0988 NOSIG 9.2mph 8°C 5°C 7.3°C
07/01/23 06:30 EIDW 070630Z 20009KT 9999 FEW017 BKN070 08/05 Q0989 NOSIG 10.4mph 8°C 5°C 7.3°C